Time;durP1;ratioP1;P1;durP2;ratioP2;P2;SDS_P1;SDS_P2;PMS_P1;PMS_P2;Temp;Humidity;BMP_temperature;BMP_pressure;BME280_temperature;BME280_humidity;BME280_pressure;Samples;Min_cycle;Max_cycle;Signal;HPM_P1;HPM_P2
2022/03/27 00:01:10;;;;;;;23.58;14.25;;;7.00;99.90;;;;;;4941982;28;20197;-87
2022/03/27 00:03:39;;;;;;;28.80;14.90;;;7.00;99.90;;;;;;4969079;28;20219;-87
2022/03/27 00:06:04;;;;;;;27.38;14.85;;;7.00;99.90;;;;;;4957648;28;20133;-87
2022/03/27 00:08:33;;;;;;;26.45;14.30;;;7.00;99.90;;;;;;4960361;28;20105;-88
2022/03/27 00:13:48;;;;;;;29.38;16.02;;;7.00;99.90;;;;;;4975841;28;20095;-87
2022/03/27 00:16:14;;;;;;;29.92;16.55;;;7.00;99.90;;;;;;4956738;28;20092;-88
2022/03/27 00:18:43;;;;;;;29.98;17.65;;;7.00;99.90;;;;;;4970636;28;20177;-87
2022/03/27 00:21:09;;;;;;;39.95;18.55;;;7.00;99.90;;;;;;4944317;28;20121;-88
2022/03/27 00:23:36;;;;;;;36.75;17.65;;;7.00;99.90;;;;;;4943011;28;20034;-87
2022/03/27 00:26:03;;;;;;;37.13;18.85;;;7.00;99.90;;;;;;4954928;28;20066;-88
2022/03/27 00:28:34;;;;;;;32.05;17.38;;;7.00;99.90;;;;;;4954749;28;20117;-88
2022/03/27 00:31:02;;;;;;;39.33;18.40;;;7.00;99.90;;;;;;4942717;28;20062;-87
2022/03/27 00:33:29;;;;;;;35.53;18.52;;;7.00;99.90;;;;;;4958457;28;20061;-88
2022/03/27 00:35:59;;;;;;;38.45;18.73;;;7.00;99.90;;;;;;4942169;28;20149;-88
2022/03/27 00:38:29;;;;;;;37.15;19.48;;;7.00;99.90;;;;;;4954780;28;20038;-89
2022/03/27 00:40:55;;;;;;;33.90;17.92;;;7.00;99.90;;;;;;4973317;28;20034;-87
2022/03/27 00:43:26;;;;;;;32.58;17.65;;;7.00;99.90;;;;;;4988690;28;20042;-89
2022/03/27 00:45:53;;;;;;;30.73;17.02;;;6.90;99.90;;;;;;4961601;28;20488;-88
2022/03/27 00:48:20;;;;;;;36.85;19.23;;;6.90;99.90;;;;;;4956559;28;20120;-87
2022/03/27 00:50:51;;;;;;;32.78;17.75;;;6.80;99.90;;;;;;4970540;28;20916;-88
2022/03/27 00:53:18;;;;;;;38.03;18.88;;;6.80;99.90;;;;;;4972938;28;20117;-88
2022/03/27 00:55:45;;;;;;;35.58;18.33;;;6.80;99.90;;;;;;4959302;28;20070;-89
2022/03/27 00:58:18;;;;;;;32.90;17.65;;;6.80;99.90;;;;;;4973609;28;20038;-87
2022/03/27 01:01:13;;;;;;;30.50;17.83;;;6.80;99.90;;;;;;4974307;28;20053;-88
2022/03/27 01:03:47;;;;;;;39.50;19.15;;;6.80;99.90;;;;;;4953485;28;20041;-87
2022/03/27 01:06:32;;;;;;;36.35;17.73;;;6.80;99.90;;;;;;4960652;28;20569;-88
2022/03/27 01:11:44;;;;;;;33.15;17.20;;;6.70;99.90;;;;;;4954778;28;20051;-88
2022/03/27 01:14:10;;;;;;;29.33;16.13;;;6.70;99.90;;;;;;4950083;28;20034;-87
2022/03/27 01:16:43;;;;;;;33.92;16.23;;;6.70;99.90;;;;;;4963922;28;20600;-87
2022/03/27 01:19:11;;;;;;;31.38;16.35;;;6.60;99.90;;;;;;4951134;28;20041;-88
2022/03/27 01:21:40;;;;;;;29.05;15.52;;;6.60;99.90;;;;;;4968407;28;20034;-87
2022/03/27 01:24:06;;;;;;;30.40;15.70;;;6.60;99.90;;;;;;4968046;28;20047;-88
2022/03/27 01:26:33;;;;;;;30.73;16.13;;;6.50;99.90;;;;;;4965839;28;20185;-88
2022/03/27 01:29:00;;;;;;;26.58;14.57;;;6.50;99.90;;;;;;4969005;28;20093;-87
2022/03/27 01:31:27;;;;;;;26.25;14.88;;;6.40;99.90;;;;;;4983969;28;20185;-87
2022/03/27 01:33:52;;;;;;;24.60;13.48;;;6.40;99.90;;;;;;4969997;28;20172;-90
2022/03/27 01:36:25;;;;;;;24.33;13.65;;;6.30;99.90;;;;;;5003022;28;20085;-89
2022/03/27 01:38:53;;;;;;;24.27;13.82;;;6.20;99.90;;;;;;4956078;28;20395;-88
2022/03/27 01:41:23;;;;;;;26.38;13.13;;;6.20;99.90;;;;;;4966994;28;20039;-88
2022/03/27 01:43:50;;;;;;;23.30;12.63;;;6.10;99.90;;;;;;4984249;28;20042;-90
2022/03/27 01:46:16;;;;;;;21.90;13.23;;;6.10;99.90;;;;;;4952178;28;20039;-87
2022/03/27 01:48:45;;;;;;;24.75;12.82;;;6.00;99.90;;;;;;4984756;28;20085;-89
2022/03/27 01:51:11;;;;;;;23.60;12.88;;;5.90;99.90;;;;;;4937467;28;20177;-89
2022/03/27 01:53:39;;;;;;;24.58;12.88;;;5.90;99.90;;;;;;4923301;28;20129;-87
2022/03/27 01:56:06;;;;;;;26.33;12.32;;;5.80;99.90;;;;;;4977792;28;20046;-88
2022/03/27 01:58:32;;;;;;;23.73;12.65;;;5.80;99.90;;;;;;4966193;28;20085;-89
2022/03/27 02:00:58;;;;;;;25.63;11.43;;;5.80;99.90;;;;;;4935793;28;20077;-88
2022/03/27 02:03:27;;;;;;;22.83;12.43;;;5.70;99.90;;;;;;4969477;28;20039;-88
2022/03/27 02:05:55;;;;;;;30.58;14.20;;;5.60;99.90;;;;;;4964546;28;20046;-87
2022/03/27 02:08:21;;;;;;;28.00;13.68;;;5.60;99.90;;;;;;4966261;28;21420;-87
2022/03/27 02:10:48;;;;;;;30.40;14.13;;;5.60;99.90;;;;;;4980506;28;20443;-87
2022/03/27 02:13:18;;;;;;;24.17;12.27;;;5.50;99.90;;;;;;4973972;28;20097;-90
2022/03/27 02:15:46;;;;;;;22.67;13.93;;;5.50;99.90;;;;;;4968162;28;20047;-90
2022/03/27 02:18:12;;;;;;;24.30;13.68;;;5.50;99.90;;;;;;4972634;28;20034;-88
2022/03/27 02:20:39;;;;;;;27.33;13.40;;;5.50;99.90;;;;;;4984568;28;20042;-88
2022/03/27 02:23:07;;;;;;;26.65;14.13;;;5.50;99.90;;;;;;4943810;28;20258;-89
2022/03/27 02:25:39;;;;;;;22.88;12.73;;;5.50;99.90;;;;;;4969493;28;20125;-88
2022/03/27 02:28:06;;;;;;;;;;;5.40;99.90;;;;;;4988022;28;20643;-88
2022/03/27 02:30:32;;;;;;;22.77;13.35;;;5.40;99.90;;;;;;4987181;28;19925;-88
2022/03/27 02:33:00;;;;;;;23.60;11.82;;;5.30;99.90;;;;;;4952457;28;20055;-88
2022/03/27 02:35:29;;;;;;;22.17;12.85;;;5.30;99.90;;;;;;4982409;28;20726;-89
2022/03/27 02:37:55;;;;;;;25.63;12.75;;;5.30;99.90;;;;;;4937492;28;20511;-87
2022/03/27 02:40:24;;;;;;;24.88;13.05;;;5.20;99.90;;;;;;4969148;28;20077;-88
2022/03/27 02:42:52;;;;;;;22.52;12.73;;;5.20;99.90;;;;;;4966852;28;20671;-88
2022/03/27 02:45:29;;;;;;;19.48;12.40;;;5.10;99.90;;;;;;4984237;28;21189;-88
2022/03/27 02:47:56;;;;;;;21.52;12.38;;;5.00;99.90;;;;;;4984398;28;20041;-88
2022/03/27 02:50:27;;;;;;;26.15;13.05;;;5.00;99.90;;;;;;4969352;28;20570;-87
2022/03/27 02:52:59;;;;;;;23.85;12.27;;;4.90;99.90;;;;;;4988422;28;20117;-87
2022/03/27 02:55:27;;;;;;;23.38;11.48;;;4.90;99.90;;;;;;4967776;28;20096;-88
2022/03/27 02:57:57;;;;;;;21.27;11.68;;;4.90;99.90;;;;;;4986337;28;20038;-87
2022/03/27 03:00:23;;;;;;;24.25;12.52;;;4.90;99.90;;;;;;4981171;28;20398;-88
2022/03/27 03:02:50;;;;;;;24.25;12.15;;;4.80;99.90;;;;;;4935190;28;20054;-88
2022/03/27 03:05:19;;;;;;;20.50;11.60;;;4.80;99.90;;;;;;4939725;28;20042;-88
2022/03/27 03:07:48;;;;;;;24.23;11.98;;;4.80;99.90;;;;;;4953632;28;20050;-88
2022/03/27 03:10:16;;;;;;;23.90;12.75;;;4.80;99.90;;;;;;4985048;28;20669;-88
2022/03/27 03:12:42;;;;;;;19.23;11.73;;;4.70;99.90;;;;;;4951666;28;20043;-88
2022/03/27 03:15:09;;;;;;;20.88;12.07;;;4.70;99.90;;;;;;4966488;28;20137;-88
2022/03/27 03:17:36;;;;;;;26.77;13.38;;;4.70;99.90;;;;;;4950838;28;20035;-88
2022/03/27 03:20:02;;;;;;;22.85;11.77;;;4.70;99.90;;;;;;4957868;28;20038;-88
2022/03/27 03:22:29;;;;;;;22.38;12.30;;;4.70;99.90;;;;;;4970985;28;20052;-88
2022/03/27 03:24:54;;;;;;;29.60;12.10;;;4.70;99.90;;;;;;4968849;28;20092;-89
2022/03/27 03:27:22;;;;;;;28.92;11.40;;;4.80;99.90;;;;;;4919431;28;20481;-88
2022/03/27 03:29:48;;;;;;;18.67;10.40;;;4.80;99.90;;;;;;4981282;28;20412;-88
2022/03/27 03:32:22;;;;;;;23.23;11.40;;;4.80;99.90;;;;;;4970459;28;20041;-88
2022/03/27 03:34:48;;;;;;;20.00;10.60;;;4.80;99.90;;;;;;4970970;28;20039;-88
2022/03/27 03:37:13;;;;;;;26.38;10.18;;;4.80;99.90;;;;;;4954277;28;20042;-88
2022/03/27 03:39:39;;;;;;;20.40;10.45;;;4.80;99.90;;;;;;4987713;28;20046;-88
2022/03/27 03:42:06;;;;;;;22.48;11.75;;;4.80;99.90;;;;;;4969146;28;20042;-88
2022/03/27 03:44:31;;;;;;;21.58;11.00;;;4.80;99.90;;;;;;4958958;28;20030;-88
2022/03/27 03:46:57;;;;;;;17.55;10.43;;;4.80;99.90;;;;;;4988204;28;20038;-88
2022/03/27 03:49:24;;;;;;;19.63;10.40;;;4.80;99.90;;;;;;4943813;28;20125;-88
2022/03/27 03:51:50;;;;;;;26.52;10.07;;;4.80;99.90;;;;;;4961068;28;20395;-88
2022/03/27 03:54:16;;;;;;;22.52;10.48;;;4.80;99.90;;;;;;4990544;28;20507;-87
2022/03/27 03:56:42;;;;;;;24.67;10.48;;;4.80;99.90;;;;;;4955572;28;20499;-88
2022/03/27 03:59:09;;;;;;;28.27;10.85;;;4.90;99.90;;;;;;4982996;28;20062;-89
2022/03/27 04:01:35;;;;;;;24.55;10.18;;;4.90;99.90;;;;;;5003316;28;20047;-88
2022/03/27 04:04:00;;;;;;;33.33;10.23;;;4.90;99.90;;;;;;4952912;28;20061;-88
2022/03/27 04:06:26;;;;;;;29.35;10.48;;;5.00;99.90;;;;;;4981521;28;20041;-87
2022/03/27 04:08:52;;;;;;;25.58;9.95;;;5.00;99.90;;;;;;4940955;28;20090;-88
2022/03/27 04:11:18;;;;;;;26.90;10.32;;;5.10;99.90;;;;;;5000611;28;20191;-88
2022/03/27 04:13:44;;;;;;;25.33;10.00;;;5.20;99.90;;;;;;4968634;28;20286;-88
2022/03/27 04:16:10;;;;;;;26.58;10.50;;;5.20;99.90;;;;;;4963497;28;20030;-88
2022/03/27 04:18:36;;;;;;;24.55;9.30;;;5.20;99.90;;;;;;4971606;28;20088;-89
2022/03/27 04:21:03;;;;;;;33.08;10.23;;;5.20;99.90;;;;;;4968981;28;20038;-87
2022/03/27 04:23:32;;;;;;;33.72;9.63;;;5.30;99.90;;;;;;4936841;28;20070;-89
2022/03/27 04:25:58;;;;;;;29.13;10.15;;;5.30;99.90;;;;;;4967581;28;20715;-88
2022/03/27 04:28:28;;;;;;;32.30;10.13;;;5.30;99.90;;;;;;4984312;28;20038;-87
2022/03/27 04:30:57;;;;;;;29.85;11.13;;;5.40;99.90;;;;;;4971026;28;20038;-88
2022/03/27 04:33:23;;;;;;;24.20;9.27;;;5.40;99.90;;;;;;4938295;28;20054;-88
2022/03/27 04:35:49;;;;;;;30.48;10.13;;;5.40;99.90;;;;;;4948170;28;20035;-88
2022/03/27 04:38:16;;;;;;;25.27;9.65;;;5.50;99.90;;;;;;4961687;28;20491;-89
2022/03/27 04:40:42;;;;;;;32.20;10.50;;;5.50;99.90;;;;;;4952730;28;20037;-89
2022/03/27 04:43:09;;;;;;;30.05;9.93;;;5.50;99.90;;;;;;4982599;28;20045;-88
2022/03/27 04:45:37;;;;;;;36.63;9.93;;;5.60;99.90;;;;;;4957412;28;20097;-88
2022/03/27 04:48:06;;;;;;;30.33;9.88;;;5.60;99.90;;;;;;4940527;28;20034;-88
2022/03/27 04:50:34;;;;;;;44.38;9.63;;;5.70;99.90;;;;;;4973768;28;20044;-88
2022/03/27 04:53:00;;;;;;;36.78;8.82;;;5.70;99.90;;;;;;4972658;28;20030;-88
2022/03/27 04:55:32;;;;;;;35.78;9.40;;;5.80;99.90;;;;;;4958159;28;20483;-88
2022/03/27 04:57:58;;;;;;;30.75;9.20;;;5.80;99.90;;;;;;4982031;28;20080;-87
2022/03/27 05:00:24;;;;;;;34.42;8.63;;;5.90;99.90;;;;;;4982213;28;20077;-87
2022/03/27 05:02:50;;;;;;;37.15;8.32;;;5.90;99.90;;;;;;4986791;28;20169;-90
2022/03/27 05:05:17;;;;;;;38.70;8.85;;;5.90;99.90;;;;;;4970977;28;20042;-88
2022/03/27 05:07:45;;;;;;;43.22;9.45;;;6.00;99.90;;;;;;4940396;28;20049;-87
2022/03/27 05:10:13;;;;;;;51.97;10.02;;;6.00;99.90;;;;;;4976762;28;20034;-87
2022/03/27 05:12:39;;;;;;;43.10;9.05;;;6.10;99.90;;;;;;4956445;28;20051;-87
2022/03/27 05:15:06;;;;;;;50.28;8.60;;;6.10;99.90;;;;;;4957645;28;20045;-89
2022/03/27 05:17:32;;;;;;;44.70;8.40;;;6.10;99.90;;;;;;4972587;28;20479;-86
2022/03/27 05:19:58;;;;;;;38.45;8.57;;;6.10;99.90;;;;;;4969062;28;20097;-87
2022/03/27 05:22:24;;;;;;;46.53;8.88;;;6.10;99.90;;;;;;4952625;28;20042;-89
2022/03/27 05:24:51;;;;;;;43.20;8.00;;;6.10;99.90;;;;;;4989232;28;20050;-87
2022/03/27 05:27:18;;;;;;;57.13;9.40;;;6.10;99.90;;;;;;4939405;28;20392;-88
2022/03/27 05:29:44;;;;;;;61.83;9.98;;;6.10;99.90;;;;;;4939948;28;20042;-86
2022/03/27 05:32:09;;;;;;;52.35;9.25;;;6.10;99.90;;;;;;4938564;28;20030;-88
2022/03/27 05:34:36;;;;;;;49.72;8.40;;;6.10;99.90;;;;;;4915460;28;20049;-87
2022/03/27 05:37:02;;;;;;;46.28;9.60;;;6.10;99.90;;;;;;4936160;28;20030;-87
2022/03/27 05:39:28;;;;;;;49.90;9.73;;;6.10;99.90;;;;;;4922831;28;20042;-88
2022/03/27 05:41:54;;;;;;;56.00;10.75;;;6.10;99.90;;;;;;4987547;28;20487;-87
2022/03/27 05:44:20;;;;;;;60.03;9.55;;;6.10;99.90;;;;;;4953738;28;20038;-88
2022/03/27 05:46:46;;;;;;;56.67;9.73;;;6.10;99.90;;;;;;4985957;28;20121;-88
2022/03/27 05:49:11;;;;;;;51.42;9.80;;;6.10;99.90;;;;;;4956907;28;20042;-87
2022/03/27 05:51:37;;;;;;;59.97;10.20;;;6.10;99.90;;;;;;4956691;28;20920;-86
2022/03/27 05:54:03;;;;;;;50.40;9.98;;;6.20;99.90;;;;;;4980570;28;20034;-86
2022/03/27 05:56:29;;;;;;;58.15;12.35;;;6.20;99.90;;;;;;4973503;28;20069;-86
2022/03/27 05:58:54;;;;;;;49.58;10.88;;;6.20;99.90;;;;;;4947062;28;20064;-86
2022/03/27 06:01:21;;;;;;;51.22;10.93;;;6.20;99.90;;;;;;4984570;28;20045;-87
2022/03/27 06:03:49;;;;;;;53.20;11.18;;;6.20;99.90;;;;;;4977631;28;20457;-88
2022/03/27 06:06:19;;;;;;;53.72;11.40;;;6.20;99.90;;;;;;4976635;28;20038;-87
2022/03/27 06:08:45;;;;;;;62.35;12.05;;;6.30;99.90;;;;;;4957090;28;20101;-88
2022/03/27 06:11:11;;;;;;;63.10;11.73;;;6.30;99.90;;;;;;4975165;28;20034;-87
2022/03/27 06:13:40;;;;;;;55.00;11.27;;;6.30;99.90;;;;;;4960318;28;20050;-86
2022/03/27 06:16:11;;;;;;;47.58;11.60;;;6.40;99.90;;;;;;4959906;28;20058;-87
2022/03/27 06:21:11;;;;;;;59.72;12.38;;;6.40;99.90;;;;;;5014182;28;20050;-87
2022/03/27 06:23:37;;;;;;;50.72;11.00;;;6.50;99.90;;;;;;4979737;28;20702;-88
2022/03/27 06:26:03;;;;;;;63.97;11.57;;;6.50;99.90;;;;;;4982379;28;20034;-87
2022/03/27 06:28:29;;;;;;;51.38;9.75;;;6.50;99.90;;;;;;4978763;28;20041;-88
2022/03/27 06:30:55;;;;;;;61.00;10.20;;;6.60;99.90;;;;;;4949469;28;20046;-87
2022/03/27 06:33:21;;;;;;;60.20;9.93;;;6.50;99.90;;;;;;4948417;28;20045;-87
2022/03/27 06:35:47;;;;;;;57.90;11.00;;;6.60;99.90;;;;;;4961828;28;20044;-87
2022/03/27 06:38:12;;;;;;;54.03;10.45;;;6.60;99.90;;;;;;4963704;28;20055;-88
2022/03/27 06:40:38;;;;;;;67.03;11.15;;;6.70;99.90;;;;;;4967109;28;20045;-86
2022/03/27 06:43:05;;;;;;;56.88;9.57;;;6.70;99.90;;;;;;4952081;28;20116;-86
2022/03/27 06:45:31;;;;;;;47.17;9.18;;;6.70;99.90;;;;;;4980552;28;20060;-88
2022/03/27 06:47:57;;;;;;;64.45;9.85;;;6.70;99.90;;;;;;4968653;28;20030;-87
2022/03/27 06:50:23;;;;;;;47.70;8.73;;;6.80;99.90;;;;;;4986844;28;20041;-87
2022/03/27 06:52:51;;;;;;;53.88;9.40;;;6.80;99.90;;;;;;4980895;28;20045;-88
2022/03/27 06:55:17;;;;;;;49.35;8.43;;;6.80;99.90;;;;;;4979807;28;20142;-88
2022/03/27 06:57:43;;;;;;;59.30;8.90;;;6.90;99.90;;;;;;4968311;28;20037;-88
2022/03/27 07:03:02;;;;;;;46.60;8.32;;;6.90;99.90;;;;;;4980377;28;20048;-86
2022/03/27 07:05:35;;;;;;;51.45;9.18;;;7.00;99.90;;;;;;4977419;28;20053;-88
2022/03/27 07:08:00;;;;;;;46.28;8.32;;;7.10;99.90;;;;;;4984628;28;20050;-86
2022/03/27 07:10:26;;;;;;;55.10;9.35;;;7.10;99.90;;;;;;4981584;28;20593;-87
2022/03/27 07:12:55;;;;;;;53.17;8.68;;;7.10;99.90;;;;;;4961890;28;20053;-89
2022/03/27 07:15:24;;;;;;;51.38;7.05;;;7.20;99.90;;;;;;4979494;28;20049;-89
2022/03/27 07:17:53;;;;;;;55.95;8.13;;;7.30;99.90;;;;;;4967484;28;20042;-89
2022/03/27 07:20:38;;;;;;;57.33;9.93;;;7.30;99.90;;;;;;4981506;28;20073;-87
2022/03/27 07:23:09;;;;;;;48.38;8.50;;;7.40;99.90;;;;;;4981472;28;20046;-89
2022/03/27 07:25:38;;;;;;;45.90;7.53;;;7.40;99.90;;;;;;4963852;28;20148;-89
2022/03/27 07:28:06;;;;;;;57.35;8.25;;;7.30;99.90;;;;;;4981360;28;20817;-88
2022/03/27 10:55:45;;;;;;;32.92;8.27;;;;;;;;;;4989363;28;20046;-88
2022/03/27 10:58:43;;;;;;;37.13;8.02;;;;;;;;;;4948085;28;20046;-88
2022/03/27 11:01:30;;;;;;;39.38;8.90;;;;;;;;;;4927236;28;20126;-87
2022/03/27 11:04:06;;;;;;;41.05;9.35;;;;;;;;;;4937868;28;20057;-88
2022/03/27 11:06:52;;;;;;;44.20;9.60;;;;;;;;;;4964910;28;20038;-88
2022/03/27 11:09:39;;;;;;;39.63;8.82;;;;;;;;;;4962180;28;20125;-90
2022/03/27 11:12:29;;;;;;;28.98;8.15;;;10.20;99.90;;;;;;4947013;28;20488;-90
2022/03/27 11:15:00;;;;;;;35.95;9.40;;;12.50;99.90;;;;;;4951163;28;20394;-88
2022/03/27 11:17:38;;;;;;;40.22;8.93;;;12.70;99.90;;;;;;4940787;28;20072;-90
2022/03/27 11:20:11;;;;;;;29.73;8.10;;;12.80;95.30;;;;;;4962846;28;20039;-92
2022/03/27 11:22:53;;;;;;;33.13;7.85;;;12.80;89.00;;;;;;4950394;28;20157;-88
2022/03/27 11:25:46;;;;;;;33.88;7.55;;;12.80;92.90;;;;;;4947195;28;20053;-89
2022/03/27 11:28:14;;;;;;;37.92;7.65;;;12.80;93.60;;;;;;4973082;28;20503;-88
2022/03/27 11:30:55;;;;;;;33.28;7.72;;;12.80;96.40;;;;;;4957228;28;20407;-88
2022/03/27 11:33:30;;;;;;;36.03;7.38;;;12.90;94.90;;;;;;4953536;28;20542;-89
2022/03/27 11:36:08;;;;;;;28.33;6.72;;;13.00;92.20;;;;;;4949122;28;20097;-87
2022/03/27 11:38:52;;;;;;;38.13;7.88;;;13.10;88.90;;;;;;4963330;28;20066;-89
2022/03/27 11:41:25;;;;;;;33.22;7.43;;;13.20;90.10;;;;;;4955779;28;20129;-87
2022/03/27 11:43:52;;;;;;;33.55;7.38;;;;;;;;;;4952985;28;20045;-88
2022/03/27 11:46:28;;;;;;;31.02;7.40;;;;;;;;;;4928049;28;20041;-88
2022/03/27 11:48:55;;;;;;;32.47;7.43;;;;;;;;;;4946189;28;20148;-86
2022/03/27 11:51:24;;;;;;;32.72;7.43;;;;;;;;;;4941491;28;20550;-88
2022/03/27 11:53:51;;;;;;;40.42;8.43;;;;;;;;;;4950026;28;20045;-91
2022/03/27 11:56:17;;;;;;;36.22;7.82;;;13.30;83.50;;;;;;4951955;28;20045;-89
2022/03/27 11:58:44;;;;;;;37.88;7.78;;;;;;;;;;4935692;28;20042;-88
2022/03/27 12:01:16;;;;;;;24.40;6.55;;;;;;;;;;4953104;28;20108;-88
2022/03/27 12:03:43;;;;;;;33.97;7.25;;;;;;;;;;4935825;28;20038;-88
2022/03/27 12:06:10;;;;;;;35.00;7.47;;;13.80;89.20;;;;;;4942823;28;20043;-88
2022/03/27 12:08:38;;;;;;;30.88;6.50;;;14.40;81.40;;;;;;4958649;28;20038;-87
2022/03/27 12:11:06;;;;;;;33.72;7.15;;;14.50;80.90;;;;;;4950493;28;20038;-87
2022/03/27 12:13:40;;;;;;;25.38;6.15;;;14.60;76.60;;;;;;4954842;28;20114;-90
2022/03/27 12:16:29;;;;;;;30.23;6.65;;;14.60;75.80;;;;;;4959573;28;20042;-88
2022/03/27 12:19:27;;;;;;;32.25;6.78;;;14.70;78.70;;;;;;4956946;28;20514;-89
2022/03/27 12:22:04;;;;;;;27.42;6.03;;;14.80;71.70;;;;;;4949201;28;20069;-87
2022/03/27 12:24:41;;;;;;;26.38;6.22;;;14.90;73.20;;;;;;4943148;28;20034;-88
2022/03/27 12:30:09;;;;;;;25.00;6.03;;;15.30;71.50;;;;;;4961225;28;20042;-88
2022/03/27 12:32:36;;;;;;;29.35;5.68;;;15.40;66.10;;;;;;4916109;28;20038;-86
2022/03/27 12:35:02;;;;;;;26.75;5.45;;;15.60;64.80;;;;;;4958782;28;20042;-87
2022/03/27 12:37:30;;;;;;;28.98;5.97;;;15.50;62.70;;;;;;4936076;28;20050;-89
2022/03/27 12:40:29;;;;;;;29.50;5.95;;;15.50;62.20;;;;;;4935995;28;20388;-87
2022/03/27 12:43:12;;;;;;;27.40;5.90;;;15.30;60.20;;;;;;4950272;28;20136;-90
2022/03/27 12:45:44;;;;;;;25.83;5.13;;;15.10;61.60;;;;;;4945665;28;20146;-88
2022/03/27 12:48:13;;;;;;;22.27;5.78;;;15.10;62.50;;;;;;4948396;28;20050;-87
2022/03/27 12:50:41;;;;;;;26.10;6.20;;;15.10;62.00;;;;;;4968236;28;20503;-86
2022/03/27 12:53:29;;;;;;;27.80;5.95;;;15.00;62.10;;;;;;4935407;28;20034;-87
2022/03/27 12:56:00;;;;;;;28.85;7.18;;;15.00;62.00;;;;;;4947630;28;20112;-88
2022/03/27 12:58:41;;;;;;;21.73;5.65;;;15.00;63.30;;;;;;4949662;28;20073;-88
2022/03/27 13:01:24;;;;;;;24.38;5.82;;;15.00;62.50;;;;;;4952972;28;20703;-87
2022/03/27 13:04:19;;;;;;;26.65;4.82;;;15.10;60.90;;;;;;4956136;28;20038;-88
2022/03/27 13:06:58;;;;;;;26.05;5.43;;;15.10;61.00;;;;;;4926231;28;20053;-88
2022/03/27 13:09:25;;;;;;;23.42;5.40;;;15.20;60.40;;;;;;4935386;28;20046;-88
2022/03/27 13:11:51;;;;;;;24.77;5.93;;;15.20;59.60;;;;;;4952163;28;20082;-88
2022/03/27 13:14:18;;;;;;;26.20;5.65;;;15.20;59.60;;;;;;4934440;28;20039;-88
2022/03/27 13:16:48;;;;;;;25.80;5.18;;;15.30;59.50;;;;;;4931412;28;20038;-92
2022/03/27 13:19:17;;;;;;;21.08;5.32;;;15.30;58.90;;;;;;4947761;28;20050;-90
2022/03/27 13:21:54;;;;;;;27.40;5.68;;;15.40;58.10;;;;;;4942768;28;20053;-88
2022/03/27 13:24:31;;;;;;;22.73;5.70;;;15.40;57.70;;;;;;4945339;28;20038;-88
2022/03/27 13:27:04;;;;;;;21.60;5.38;;;15.80;57.50;;;;;;4950502;28;20030;-88
2022/03/27 13:29:31;;;;;;;27.50;5.45;;;16.40;57.50;;;;;;4958147;28;20046;-87
2022/03/27 13:31:58;;;;;;;21.48;5.50;;;;;;;;;;4942284;28;20042;-88
2022/03/27 13:34:24;;;;;;;21.48;5.65;;;;;;;;;;4961939;28;20054;-87
2022/03/27 13:36:52;;;;;;;25.77;5.40;;;16.60;56.80;;;;;;4940494;28;20046;-86
2022/03/27 13:39:20;;;;;;;26.38;5.68;;;17.40;55.30;;;;;;4948753;28;20042;-87
2022/03/27 13:44:33;;;;;;;25.45;5.68;;;17.50;54.80;;;;;;4955488;28;20042;-85
2022/03/27 13:47:03;;;;;;;23.88;5.70;;;;;;;;;;4942494;28;20561;-85
2022/03/27 13:49:29;;;;;;;22.65;5.53;;;18.00;53.80;;;;;;4945085;28;20051;-87
2022/03/27 13:51:56;;;;;;;24.25;5.90;;;;;;;;;;4928152;28;20041;-85
2022/03/27 13:54:22;;;;;;;99.60;87.78;;;;;;;;;;4936420;28;20085;-89
2022/03/27 13:56:48;;;;;;;194.80;175.48;;;18.30;53.70;;;;;;4938566;28;20770;-87
2022/03/27 13:59:15;;;;;;;121.60;106.38;;;;;;;;;;4930235;28;20123;-86
2022/03/27 14:01:42;;;;;;;27.98;7.95;;;19.00;52.40;;;;;;4939321;28;20035;-86
2022/03/27 14:04:13;;;;;;;27.60;7.63;;;19.50;50.90;;;;;;4942263;28;20038;-87
2022/03/27 14:06:42;;;;;;;25.88;6.00;;;19.30;50.80;;;;;;4946974;28;20113;-87
2022/03/27 14:09:08;;;;;;;36.03;12.18;;;;;;;;;;4944924;28;20109;-87
2022/03/27 14:11:35;;;;;;;166.00;73.55;;;;;;;;;;4947274;28;20499;-88
2022/03/27 14:14:01;;;;;;;93.75;42.03;;;19.90;52.30;;;;;;4958325;28;20140;-85
2022/03/27 14:16:28;;;;;;;26.38;7.18;;;21.10;49.20;;;;;;4924391;28;20037;-86
2022/03/27 14:18:55;;;;;;;39.00;11.32;;;20.40;48.70;;;;;;4955904;28;20038;-85
2022/03/27 14:21:21;;;;;;;65.05;36.97;;;20.50;49.70;;;;;;4953700;28;20066;-88
2022/03/27 14:23:47;;;;;;;26.40;7.60;;;21.00;49.20;;;;;;4955580;28;20051;-86
2022/03/27 14:26:13;;;;;;;21.48;6.18;;;21.90;49.00;;;;;;4939840;28;20042;-85
2022/03/27 14:28:39;;;;;;;27.60;6.20;;;22.50;47.30;;;;;;4947788;28;20034;-87
2022/03/27 14:31:05;;;;;;;27.77;9.45;;;;;;;;;;4950814;28;20061;-88
2022/03/27 14:33:32;;;;;;;25.80;5.78;;;;;;;;;;4936071;28;20593;-87
2022/03/27 14:35:58;;;;;;;25.27;7.95;;;22.80;46.50;;;;;;4950262;28;20085;-87
2022/03/27 14:38:25;;;;;;;89.57;39.65;;;23.70;45.50;;;;;;4952793;28;20736;-87
2022/03/27 14:40:51;;;;;;;698.92;401.23;;;23.70;44.30;;;;;;4944399;28;20089;-87
2022/03/27 14:43:17;;;;;;;46.90;16.40;;;23.80;45.10;;;;;;4934264;28;20088;-88
2022/03/27 14:45:43;;;;;;;147.32;58.47;;;24.00;44.80;;;;;;4937731;28;20514;-87
2022/03/27 14:48:09;;;;;;;29.98;6.80;;;24.00;44.30;;;;;;4931130;28;20172;-87
2022/03/27 14:50:35;;;;;;;104.32;67.18;;;24.00;44.30;;;;;;4932779;28;20046;-88
2022/03/27 14:53:03;;;;;;;44.92;23.65;;;23.90;43.60;;;;;;4926569;28;20184;-86
2022/03/27 14:58:14;;;;;;;68.93;36.65;;;;;;;;;;4959755;28;20054;-86
2022/03/27 15:00:41;;;;;;;88.50;53.92;;;;;;;;;;4930678;28;20536;-86
2022/03/27 15:03:07;;;;;;;236.32;142.23;;;;;;;;;;4926814;28;20069;-86
2022/03/27 15:05:34;;;;;;;20.42;7.18;;;;;;;;;;4950102;28;20061;-86
2022/03/27 15:08:02;;;;;;;33.63;15.38;;;;;;;;;;4946398;28;20105;-85
2022/03/27 15:10:28;;;;;;;39.53;21.00;;;;;;;;;;4947002;28;20535;-86
2022/03/27 15:12:54;;;;;;;87.63;61.53;;;;;;;;;;4938055;28;20048;-86
2022/03/27 15:15:21;;;;;;;40.50;21.83;;;;;;;;;;4929252;28;20064;-88
2022/03/27 15:17:47;;;;;;;18.30;5.45;;;;;;;;;;4966296;28;20049;-86
2022/03/27 15:20:13;;;;;;;28.27;9.13;;;;;;;;;;4945254;28;20057;-84
2022/03/27 15:22:39;;;;;;;25.67;7.43;;;;;;;;;;4928087;28;20101;-85
2022/03/27 15:28:04;;;;;;;20.98;5.22;;;;;;;;;;4958626;28;20053;-84
2022/03/27 15:30:30;;;;;;;21.77;4.75;;;;;;;;;;4948730;28;20034;-85
2022/03/27 15:32:56;;;;;;;20.50;5.47;;;;;;;;;;4926525;28;20050;-84
2022/03/27 15:35:28;;;;;;;21.25;5.45;;;;;;;;;;4942744;28;20030;-89
2022/03/27 15:37:54;;;;;;;25.42;6.20;;;;;;;;;;4945599;28;20038;-87
2022/03/27 15:40:20;;;;;;;27.52;5.55;;;;;;;;;;4923933;28;20062;-88
2022/03/27 15:42:47;;;;;;;23.92;5.82;;;;;;;;;;4929530;28;20507;-86
2022/03/27 15:45:14;;;;;;;19.98;4.93;;;22.30;44.00;;;;;;4942389;28;20044;-86
2022/03/27 15:47:43;;;;;;;22.42;4.88;;;;;;;;;;4928598;28;20046;-87
2022/03/27 15:50:13;;;;;;;18.10;4.90;;;;;;;;;;4939485;28;20096;-86
2022/03/27 15:52:43;;;;;;;27.80;5.43;;;;;;;;;;4936079;28;20038;-89
2022/03/27 15:55:09;;;;;;;24.23;5.07;;;19.10;49.00;;;;;;4929378;28;20043;-86
2022/03/27 15:57:36;;;;;;;22.33;4.80;;;19.70;48.10;;;;;;4930880;28;23330;-86
2022/03/27 16:00:06;;;;;;;22.95;5.30;;;;;;;;;;4948650;28;20042;-86
2022/03/27 16:02:32;;;;;;;20.45;4.93;;;;;;;;;;4946525;28;20042;-87
2022/03/27 16:04:58;;;;;;;18.60;4.43;;;19.30;48.10;;;;;;4929037;28;20050;-87
2022/03/27 16:07:23;;;;;;;27.52;5.38;;;19.90;47.90;;;;;;4942491;28;20042;-88
2022/03/27 16:09:49;;;;;;;23.98;5.20;;;20.00;48.10;;;;;;4929276;28;20112;-86
2022/03/27 16:12:15;;;;;;;22.75;5.03;;;20.00;47.60;;;;;;4922623;28;20037;-85
2022/03/27 16:14:41;;;;;;;22.50;5.13;;;19.90;47.80;;;;;;4945602;28;20416;-86
2022/03/27 16:17:10;;;;;;;21.02;5.50;;;;;;;;;;4920498;28;20116;-86
2022/03/27 16:19:39;;;;;;;21.80;5.15;;;;;;;;;;4944598;28;20090;-85
2022/03/27 16:22:07;;;;;;;23.92;5.97;;;;;;;;;;4925846;28;20046;-85
2022/03/27 16:24:33;;;;;;;28.70;5.35;;;;;;;;;;4930854;28;20069;-86
2022/03/27 16:26:59;;;;;;;27.67;5.85;;;;;;;;;;4941521;28;20611;-84
2022/03/27 16:29:26;;;;;;;23.33;5.25;;;;;;;;;;4941603;28;20133;-85
2022/03/27 16:31:55;;;;;;;23.13;5.28;;;;;;;;;;4928891;28;20042;-85
2022/03/27 16:34:21;;;;;;;33.65;6.65;;;;;;;;;;4923480;28;20039;-86
2022/03/27 16:36:47;;;;;;;31.83;6.95;;;;;;;;;;4921693;28;21927;-85
2022/03/27 16:39:13;;;;;;;26.42;5.88;;;;;;;;;;4946536;28;20045;-86
2022/03/27 16:41:39;;;;;;;25.25;5.57;;;;;;;;;;4932263;28;20520;-85
2022/03/27 16:44:05;;;;;;;28.17;5.75;;;;;;;;;;4938068;28;20121;-86
2022/03/27 16:46:34;;;;;;;30.17;6.03;;;20.40;47.90;;;;;;4935403;28;20038;-88
2022/03/27 16:49:00;;;;;;;27.55;6.05;;;18.60;52.40;;;;;;4934763;28;20114;-84
2022/03/27 16:51:26;;;;;;;24.63;5.65;;;18.00;53.70;;;;;;4923702;28;20125;-86
2022/03/27 16:53:52;;;;;;;32.13;5.85;;;17.40;55.30;;;;;;4935331;28;20493;-88